Gure Amuitz — EASO — position and weather

sailwx.info

Track history (hours):
 
Tides and Currents Weather Stations Pressure Air Temp Water Temp Dewpoint Dewpoint Depression Visibility Wind Speed Wind Dir Waves Ship Positions

Gure Amuitz

Last reported at 2015-Mar-31 01:27 UTC. Time now 2015-Mar-31 08:28 UTC.
Position N 43°23' W 001°47'.

Length 28 m.

Type: Fishing. MMSI: 224010590.

Date/timePositionNaut miles runAvg speedWind from/ knotsBaromVisibWave heightAir tempDewpointWater temp
2015-Mar-31 01:27N 43°23' W 001°47'3 3.1
2015-Mar-31 00:30N 43°26' W 001°48'6 1.0
2015-Mar-30 18:33N 43°30' W 001°54'5 5.3
2015-Mar-30 17:34N 43°27' W 001°49'4 3.5
2015-Mar-30 16:33N 43°23' W 001°47'  
2015-Mar-27 11:33N 43°23' W 001°47'0 0.1
2015-Mar-27 10:33N 43°23' W 001°47'0 0.0
2015-Mar-27 09:33N 43°23' W 001°47'0 0.0
2015-Mar-27 08:32N 43°23' W 001°47'10 1.0
2015-Mar-26 22:23N 43°33' W 001°51'4 5.2
2015-Mar-26 21:31N 43°29' W 001°49'5 4.7
2015-Mar-26 20:33N 43°24' W 001°47'1 1.1
2015-Mar-26 19:33N 43°23' W 001°47'0 0.0
2015-Mar-26 12:33N 43°23' W 001°47'0 0.0
2015-Mar-26 11:33N 43°23' W 001°47'0 0.0
2015-Mar-26 10:34N 43°23' W 001°47'0 0.2
2015-Mar-26 09:34N 43°23' W 001°47'6 6.0
2015-Mar-26 08:33N 43°29' W 001°47'5 0.8
2015-Mar-26 03:04N 43°32' W 001°52'4 7.2
2015-Mar-26 02:33N 43°29' W 001°50'6 6.0
2015-Mar-26 01:34N 43°23' W 001°47'0 0.1
2015-Mar-26 00:34N 43°23' W 001°47'0 0.0
2015-Mar-25 23:33N 43°23' W 001°47'0 0.0
2015-Mar-25 22:33N 43°23' W 001°47'0 0.0
2015-Mar-25 21:34N 43°23' W 001°47'0 0.0
2015-Mar-25 20:33N 43°23' W 001°47'0 0.0
2015-Mar-25 10:27N 43°23' W 001°47'0 0.0
2015-Mar-24 07:27N 43°23' W 001°47'3 3.6
2015-Mar-24 06:33N 43°26' W 001°46'9 9.1
2015-Mar-24 05:33N 43°35' W 001°46'33 6.3
2015-Mar-24 00:15N 44°08' W 001°53'18 5.9
2015-Mar-23 21:11N 43°52' W 001°43'0 0.2
2015-Mar-23 20:33N 43°52' W 001°43'0 0.4
2015-Mar-23 19:32N 43°51' W 001°43'29 3.1
2015-Mar-23 10:17N 43°24' W 001°56'6 8.7
2015-Mar-23 09:33N 43°24' W 001°47'  
Track history (hours):
 
Tides and Currents Weather Stations Pressure Air Temp Water Temp Dewpoint Dewpoint Depression Visibility Wind Speed Wind Dir Waves Ship Positions

Gure Amuitz

Last reported at 2015-Mar-31 01:27 UTC. Time now 2015-Mar-31 08:28 UTC.
Position N 43°23' W 001°47'.

Length 28 m.

Type: Fishing. MMSI: 224010590.

Date/timePositionNaut miles runAvg speedWind from/ knotsBaromVisibWave heightAir tempDewpointWater temp
2015-Mar-31 01:27N 43°23' W 001°47'3 3.1
2015-Mar-31 00:30N 43°26' W 001°48'6 1.0
2015-Mar-30 18:33N 43°30' W 001°54'5 5.3
2015-Mar-30 17:34N 43°27' W 001°49'4 3.5
2015-Mar-30 16:33N 43°23' W 001°47'  
2015-Mar-27 11:33N 43°23' W 001°47'0 0.1
2015-Mar-27 10:33N 43°23' W 001°47'0 0.0
2015-Mar-27 09:33N 43°23' W 001°47'0 0.0
2015-Mar-27 08:32N 43°23' W 001°47'10 1.0
2015-Mar-26 22:23N 43°33' W 001°51'4 5.2
2015-Mar-26 21:31N 43°29' W 001°49'5 4.7
2015-Mar-26 20:33N 43°24' W 001°47'1 1.1
2015-Mar-26 19:33N 43°23' W 001°47'0 0.0
2015-Mar-26 12:33N 43°23' W 001°47'0 0.0
2015-Mar-26 11:33N 43°23' W 001°47'0 0.0
2015-Mar-26 10:34N 43°23' W 001°47'0 0.2
2015-Mar-26 09:34N 43°23' W 001°47'6 6.0
2015-Mar-26 08:33N 43°29' W 001°47'5 0.8
2015-Mar-26 03:04N 43°32' W 001°52'4 7.2
2015-Mar-26 02:33N 43°29' W 001°50'6 6.0
2015-Mar-26 01:34N 43°23' W 001°47'0 0.1
2015-Mar-26 00:34N 43°23' W 001°47'0 0.0
2015-Mar-25 23:33N 43°23' W 001°47'0 0.0
2015-Mar-25 22:33N 43°23' W 001°47'0 0.0
2015-Mar-25 21:34N 43°23' W 001°47'0 0.0
2015-Mar-25 20:33N 43°23' W 001°47'0 0.0
2015-Mar-25 10:27N 43°23' W 001°47'0 0.0
2015-Mar-24 07:27N 43°23' W 001°47'3 3.6
2015-Mar-24 06:33N 43°26' W 001°46'9 9.1
2015-Mar-24 05:33N 43°35' W 001°46'33 6.3
2015-Mar-24 00:15N 44°08' W 001°53'18 5.9
2015-Mar-23 21:11N 43°52' W 001°43'0 0.2
2015-Mar-23 20:33N 43°52' W 001°43'0 0.4
2015-Mar-23 19:32N 43°51' W 001°43'29 3.1
2015-Mar-23 10:17N 43°24' W 001°56'6 8.7
2015-Mar-23 09:33N 43°24' W 001°47'  

Dump ship's entire track history